createdAt,value
2019-01-05T00:00:31.356Z,1024.85
2019-01-05T00:01:31.377Z,1024.83
2019-01-05T00:02:31.341Z,1024.84
2019-01-05T00:03:31.329Z,1024.74
2019-01-05T00:04:31.340Z,1024.82
2019-01-05T00:05:31.302Z,1024.76
2019-01-05T00:06:31.294Z,1024.80
2019-01-05T00:07:31.312Z,1024.77
2019-01-05T00:08:31.269Z,1024.73
2019-01-05T00:09:31.885Z,1024.77
2019-01-05T00:10:31.257Z,1024.68
2019-01-05T00:11:31.238Z,1024.67
2019-01-05T00:12:31.229Z,1024.71
2019-01-05T00:13:31.212Z,1024.68
2019-01-05T00:14:31.222Z,1024.73
2019-01-05T00:15:31.208Z,1024.75
2019-01-05T00:16:31.188Z,1024.74
2019-01-05T00:17:31.168Z,1024.70
2019-01-05T00:18:31.154Z,1024.69
2019-01-05T00:19:31.169Z,1024.68
2019-01-05T00:20:31.136Z,1024.69
2019-01-05T00:21:31.137Z,1024.69
2019-01-05T00:22:31.131Z,1024.67
2019-01-05T00:23:31.137Z,1024.65
2019-01-05T00:24:31.089Z,1024.63
2019-01-05T00:25:31.082Z,1024.60
2019-01-05T00:26:31.084Z,1024.68
2019-01-05T00:27:31.071Z,1024.70
2019-01-05T00:28:31.046Z,1024.65
2019-01-05T00:29:31.034Z,1024.57
2019-01-05T00:30:31.022Z,1024.60
2019-01-05T00:31:31.035Z,1024.58
2019-01-05T00:32:31.000Z,1024.54
2019-01-05T00:33:30.998Z,1024.55
2019-01-05T00:34:30.977Z,1024.55
2019-01-05T00:35:30.973Z,1024.47
2019-01-05T00:36:30.960Z,1024.57
2019-01-05T00:37:30.970Z,1024.56
2019-01-05T00:38:30.971Z,1024.63
2019-01-05T00:39:30.922Z,1024.54
2019-01-05T00:40:30.912Z,1024.60
2019-01-05T00:41:30.896Z,1024.58
2019-01-05T00:42:30.887Z,1024.55
2019-01-05T00:43:30.900Z,1024.50
2019-01-05T00:44:30.875Z,1024.51
2019-01-05T00:45:30.853Z,1024.47
2019-01-05T00:46:30.841Z,1024.52
2019-01-05T00:47:30.843Z,1024.54
2019-01-05T00:48:30.825Z,1024.48
2019-01-05T00:49:30.819Z,1024.47
2019-01-05T00:50:30.813Z,1024.50
2019-01-05T00:51:30.786Z,1024.56
2019-01-05T00:52:30.777Z,1024.53
2019-01-05T00:53:30.770Z,1024.46
2019-01-05T00:54:30.768Z,1024.48
2019-01-05T00:55:30.740Z,1024.52
2019-01-05T00:56:30.752Z,1024.49
2019-01-05T00:57:30.744Z,1024.47
2019-01-05T00:58:30.707Z,1024.44
2019-01-05T00:59:30.694Z,1024.40
2019-01-05T01:00:30.683Z,1024.36
2019-01-05T01:01:30.675Z,1024.39
2019-01-05T01:02:30.688Z,1024.44
2019-01-05T01:03:30.669Z,1024.41
2019-01-05T01:04:30.645Z,1024.34
2019-01-05T01:05:30.639Z,1024.37
2019-01-05T01:06:30.623Z,1024.42
2019-01-05T01:07:30.606Z,1024.41
2019-01-05T01:08:30.629Z,1024.37
2019-01-05T01:09:30.607Z,1024.31
2019-01-05T01:10:30.573Z,1024.34
2019-01-05T01:11:30.570Z,1024.35
2019-01-05T01:12:30.618Z,1024.32
2019-01-05T01:13:30.541Z,1024.32
2019-01-05T01:14:30.549Z,1024.37
2019-01-05T01:15:30.517Z,1024.33
2019-01-05T01:16:30.506Z,1024.32
2019-01-05T01:17:30.509Z,1024.27
2019-01-05T01:18:30.489Z,1024.29
2019-01-05T01:19:30.487Z,1024.25
2019-01-05T01:20:30.471Z,1024.23
2019-01-05T01:21:30.450Z,1024.21
2019-01-05T01:22:30.440Z,1024.25
2019-01-05T01:23:30.428Z,1024.21
2019-01-05T01:24:30.432Z,1024.23
2019-01-05T01:25:30.411Z,1024.21
2019-01-05T01:26:30.418Z,1024.20
2019-01-05T01:27:30.386Z,1024.19
2019-01-05T01:28:30.373Z,1024.19
2019-01-05T01:29:30.374Z,1024.23
2019-01-05T01:30:30.351Z,1024.25
2019-01-05T01:31:30.341Z,1024.21
2019-01-05T01:32:30.339Z,1024.21
2019-01-05T01:33:30.319Z,1024.15
2019-01-05T01:34:30.322Z,1024.17
2019-01-05T01:35:30.295Z,1024.10
2019-01-05T01:36:30.282Z,1024.15
2019-01-05T01:37:30.271Z,1024.16
2019-01-05T01:38:30.285Z,1024.14
2019-01-05T01:39:30.249Z,1024.07
2019-01-05T01:40:30.248Z,1024.11
2019-01-05T01:41:30.231Z,1024.05
2019-01-05T01:42:30.214Z,1024.06
2019-01-05T01:43:30.205Z,1024.08
2019-01-05T01:44:30.230Z,1024.04
2019-01-05T01:45:30.220Z,1024.00
2019-01-05T01:46:30.173Z,1023.99
2019-01-05T01:47:30.161Z,1023.97
2019-01-05T01:48:30.148Z,1023.95
2019-01-05T01:49:30.138Z,1023.92
2019-01-05T01:50:30.173Z,1023.86
2019-01-05T01:51:30.126Z,1023.81
2019-01-05T01:52:30.138Z,1023.86
2019-01-05T01:53:30.098Z,1023.82
2019-01-05T01:54:30.086Z,1023.76
2019-01-05T01:55:30.073Z,1023.74
2019-01-05T01:56:30.102Z,1023.73
2019-01-05T01:57:30.051Z,1023.74
2019-01-05T01:58:30.052Z,1023.66
2019-01-05T01:59:30.025Z,1023.60
2019-01-05T02:00:30.015Z,1023.52
2019-01-05T02:01:30.006Z,1023.56
2019-01-05T02:02:30.019Z,1023.55
2019-01-05T02:03:29.979Z,1023.56
2019-01-05T02:04:29.984Z,1023.57
2019-01-05T02:05:29.959Z,1023.49
2019-01-05T02:06:29.947Z,1023.57
2019-01-05T02:07:29.938Z,1023.56
2019-01-05T02:08:29.954Z,1023.52
2019-01-05T02:09:29.927Z,1023.51
2019-01-05T02:10:29.901Z,1023.54
2019-01-05T02:11:29.897Z,1023.57
2019-01-05T02:12:29.885Z,1023.49
2019-01-05T02:13:29.869Z,1023.54
2019-01-05T02:14:29.892Z,1023.51
2019-01-05T02:15:29.862Z,1023.54
2019-01-05T02:16:29.837Z,1023.54
2019-01-05T02:17:29.828Z,1023.56
2019-01-05T02:18:29.812Z,1023.50
2019-01-05T02:19:29.808Z,1023.49
2019-01-05T02:20:29.829Z,1023.49
2019-01-05T02:21:29.780Z,1023.46
2019-01-05T02:22:29.782Z,1023.47
2019-01-05T02:23:29.757Z,1023.48
2019-01-05T02:24:29.745Z,1023.47
2019-01-05T02:25:29.734Z,1023.45
2019-01-05T02:26:29.751Z,1023.44
2019-01-05T02:27:29.712Z,1023.31
2019-01-05T02:28:29.704Z,1023.36
2019-01-05T02:29:29.693Z,1023.28
2019-01-05T02:30:29.678Z,1023.32
2019-01-05T02:31:29.695Z,1023.24
2019-01-05T02:32:29.686Z,1023.28
2019-01-05T02:33:29.651Z,1023.25
2019-01-05T02:34:29.635Z,1023.28
2019-01-05T02:35:29.623Z,1023.26
2019-01-05T02:36:29.611Z,1023.26
2019-01-05T02:37:29.611Z,1023.27
2019-01-05T02:38:29.620Z,1023.25
2019-01-05T02:39:29.581Z,1023.24
2019-01-05T02:40:29.569Z,1023.33
2019-01-05T02:41:37.140Z,1023.25
2019-01-05T02:42:29.586Z,1023.28
2019-01-05T02:43:29.552Z,1023.29
2019-01-05T02:44:29.549Z,1023.19
2019-01-05T02:45:29.512Z,1023.28
2019-01-05T02:46:29.505Z,1023.30
2019-01-05T02:47:29.493Z,1023.28
2019-01-05T02:48:29.530Z,1023.30
2019-01-05T02:49:29.471Z,1023.32
2019-01-05T02:50:29.469Z,1023.26
2019-01-05T02:51:29.445Z,1023.21
2019-01-05T02:52:29.432Z,1023.28
2019-01-05T02:53:29.450Z,1023.24
2019-01-05T02:54:29.414Z,1023.22
2019-01-05T02:55:29.398Z,1023.23
2019-01-05T02:56:29.387Z,1023.27
2019-01-05T02:57:29.374Z,1023.25
2019-01-05T02:58:29.398Z,1023.23
2019-01-05T02:59:29.370Z,1023.21
2019-01-05T03:00:29.349Z,1023.19
2019-01-05T03:01:29.331Z,1023.17
2019-01-05T03:02:29.326Z,1023.17
2019-01-05T03:03:29.311Z,1023.15
2019-01-05T03:04:29.321Z,1023.10
2019-01-05T03:05:29.285Z,1023.11
2019-01-05T03:06:29.276Z,1023.10
2019-01-05T03:07:29.267Z,1023.08
2019-01-05T03:08:29.259Z,1023.08
2019-01-05T03:09:29.249Z,1023.08
2019-01-05T03:10:29.245Z,1023.10
2019-01-05T03:11:29.227Z,1023.08
2019-01-05T03:12:29.211Z,1023.11
2019-01-05T03:13:29.208Z,1023.04
2019-01-05T03:14:29.190Z,1023.08
2019-01-05T03:15:29.205Z,1023.08
2019-01-05T03:16:29.164Z,1023.10
2019-01-05T03:17:29.154Z,1023.08
2019-01-05T03:18:29.150Z,1023.03
2019-01-05T03:19:29.129Z,1023.08
2019-01-05T03:20:29.119Z,1023.06
2019-01-05T03:21:29.184Z,1023.01
2019-01-05T03:22:29.102Z,1022.98
2019-01-05T03:23:29.086Z,1023.03
2019-01-05T03:24:29.079Z,1022.95
2019-01-05T03:25:29.061Z,1022.98
2019-01-05T03:26:29.051Z,1022.95
2019-01-05T03:27:29.056Z,1022.96
2019-01-05T03:28:29.028Z,1022.97
2019-01-05T03:29:29.023Z,1022.88
2019-01-05T03:30:29.009Z,1022.88
2019-01-05T03:31:29.053Z,1022.86
2019-01-05T03:32:28.990Z,1022.83
2019-01-05T03:33:28.977Z,1022.84
2019-01-05T03:34:28.966Z,1022.82
2019-01-05T03:35:28.953Z,1022.85
2019-01-05T03:36:28.942Z,1022.80
2019-01-05T03:37:37.757Z,1022.79
2019-01-05T03:38:36.469Z,1022.78
2019-01-05T03:39:28.936Z,1022.80
2019-01-05T03:40:36.492Z,1022.78
2019-01-05T03:41:28.923Z,1022.73
2019-01-05T03:42:37.766Z,1022.68
2019-01-05T03:43:36.410Z,1022.69
2019-01-05T03:44:28.865Z,1022.59
2019-01-05T03:45:35.891Z,1022.61
2019-01-05T03:46:36.434Z,1022.61
2019-01-05T03:47:36.395Z,1022.63
2019-01-05T03:48:28.824Z,1022.60
2019-01-05T03:49:28.799Z,1022.60
2019-01-05T03:50:28.809Z,1022.54
2019-01-05T03:51:28.772Z,1022.62
2019-01-05T03:52:28.763Z,1022.60
2019-01-05T03:53:28.752Z,1022.60
2019-01-05T03:54:28.752Z,1022.66
2019-01-05T03:55:28.729Z,1022.58
2019-01-05T03:56:28.718Z,1022.57
2019-01-05T03:57:28.709Z,1022.53
2019-01-05T03:58:28.698Z,1022.56
2019-01-05T03:59:28.700Z,1022.54
2019-01-05T04:00:28.693Z,1022.56
2019-01-05T04:01:28.678Z,1022.50
2019-01-05T04:02:28.666Z,1022.53
2019-01-05T04:03:28.642Z,1022.49
2019-01-05T04:04:28.646Z,1022.47
2019-01-05T04:05:28.617Z,1022.43
2019-01-05T04:06:28.628Z,1022.44
2019-01-05T04:07:28.626Z,1022.45
2019-01-05T04:08:28.579Z,1022.43
2019-01-05T04:09:28.585Z,1022.42
2019-01-05T04:10:28.572Z,1022.45
2019-01-05T04:11:28.591Z,1022.43
2019-01-05T04:12:28.544Z,1022.40
2019-01-05T04:13:28.550Z,1022.47
2019-01-05T04:14:28.552Z,1022.47
2019-01-05T04:15:28.512Z,1022.43
2019-01-05T04:16:28.493Z,1022.48
2019-01-05T04:17:28.500Z,1022.49
2019-01-05T04:18:28.469Z,1022.52
2019-01-05T04:19:28.481Z,1022.51
2019-01-05T04:20:28.474Z,1022.44
2019-01-05T04:21:28.448Z,1022.47
2019-01-05T04:22:28.426Z,1022.44
2019-01-05T04:23:28.450Z,1022.46
2019-01-05T04:24:28.402Z,1022.39
2019-01-05T04:25:28.409Z,1022.37
2019-01-05T04:26:28.390Z,1022.37
2019-01-05T04:27:28.369Z,1022.27
2019-01-05T04:28:28.362Z,1022.26
2019-01-05T04:29:28.354Z,1022.23
2019-01-05T04:30:28.338Z,1022.26
2019-01-05T04:31:28.340Z,1022.27
2019-01-05T04:32:28.315Z,1022.27
2019-01-05T04:33:28.306Z,1022.24
2019-01-05T04:34:28.289Z,1022.24
2019-01-05T04:35:28.307Z,1022.26
2019-01-05T04:36:28.272Z,1022.24
2019-01-05T04:37:28.278Z,1022.21
2019-01-05T04:38:28.246Z,1022.21
2019-01-05T04:39:28.233Z,1022.23
2019-01-05T04:40:28.226Z,1022.16
2019-01-05T04:41:28.210Z,1022.20
2019-01-05T04:42:28.198Z,1022.27
2019-01-05T04:43:28.201Z,1022.27
2019-01-05T04:44:28.182Z,1022.26
2019-01-05T04:45:28.184Z,1022.27
2019-01-05T04:46:28.180Z,1022.25
2019-01-05T04:47:28.153Z,1022.19
2019-01-05T04:48:28.139Z,1022.16
2019-01-05T04:49:28.138Z,1022.18
2019-01-05T04:50:28.111Z,1022.21
2019-01-05T04:51:28.130Z,1022.20
2019-01-05T04:52:28.095Z,1022.25
2019-01-05T04:53:28.076Z,1022.19
2019-01-05T04:54:28.065Z,1022.24
2019-01-05T04:55:28.054Z,1022.16
2019-01-05T04:56:28.048Z,1022.21
2019-01-05T04:57:28.060Z,1022.21
2019-01-05T04:58:28.051Z,1022.19
2019-01-05T04:59:28.011Z,1022.15
2019-01-05T05:00:28.010Z,1022.20
2019-01-05T05:01:28.048Z,1022.13
2019-01-05T05:02:27.978Z,1022.13
2019-01-05T05:03:27.967Z,1022.15
2019-01-05T05:04:27.968Z,1022.12
2019-01-05T05:05:27.947Z,1022.18
2019-01-05T05:06:27.934Z,1022.12
2019-01-05T05:07:27.938Z,1022.11
2019-01-05T05:08:27.908Z,1022.13
2019-01-05T05:09:27.896Z,1022.11
2019-01-05T05:10:27.929Z,1022.10
2019-01-05T05:11:27.874Z,1022.08
2019-01-05T05:12:27.864Z,1022.12
2019-01-05T05:13:27.872Z,1022.15
2019-01-05T05:14:27.848Z,1022.17
2019-01-05T05:15:29.212Z,1022.17
2019-01-05T05:16:27.822Z,1022.14
2019-01-05T05:17:27.812Z,1022.12
2019-01-05T05:18:27.794Z,1022.15
2019-01-05T05:19:27.798Z,1022.14
2019-01-05T05:20:27.773Z,1022.13
2019-01-05T05:21:27.760Z,1022.12
2019-01-05T05:22:27.754Z,1022.09
2019-01-05T05:23:27.739Z,1022.09
2019-01-05T05:24:27.729Z,1022.06
2019-01-05T05:25:27.748Z,1022.08
2019-01-05T05:26:27.711Z,1022.08
2019-01-05T05:27:27.716Z,1022.05
2019-01-05T05:28:27.696Z,1022.04
2019-01-05T05:29:27.676Z,1021.97
2019-01-05T05:30:27.711Z,1021.99
2019-01-05T05:31:27.676Z,1021.94
2019-01-05T05:32:27.635Z,1022.01
2019-01-05T05:33:27.632Z,1021.97
2019-01-05T05:34:27.622Z,1021.99
2019-01-05T05:35:27.610Z,1021.97
2019-01-05T05:36:27.616Z,1021.93
2019-01-05T05:37:27.589Z,1021.95
2019-01-05T05:38:27.576Z,1021.95
2019-01-05T05:39:27.575Z,1022.01
2019-01-05T05:40:27.552Z,1021.97
2019-01-05T05:41:27.544Z,1021.92
2019-01-05T05:42:27.539Z,1021.97
2019-01-05T05:43:27.541Z,1021.97
2019-01-05T05:44:27.501Z,1021.94
2019-01-05T05:45:27.509Z,1022.00
2019-01-05T05:46:27.480Z,1022.00
2019-01-05T05:47:27.485Z,1021.97
2019-01-05T05:48:27.465Z,1021.96
2019-01-05T05:49:27.449Z,1021.98
2019-01-05T05:50:27.442Z,1021.94
2019-01-05T05:51:27.431Z,1021.99
2019-01-05T05:52:27.422Z,1021.88
2019-01-05T05:53:27.420Z,1022.00
2019-01-05T05:54:27.392Z,1021.96
2019-01-05T05:55:27.404Z,1021.98
2019-01-05T05:56:27.399Z,1022.02
2019-01-05T05:57:27.360Z,1022.03
2019-01-05T05:58:27.372Z,1022.00
2019-01-05T05:59:27.331Z,1022.00
2019-01-05T06:00:27.324Z,1022.04
2019-01-05T06:01:27.337Z,1021.99
2019-01-05T06:02:27.306Z,1022.05
2019-01-05T06:03:27.291Z,1022.07
2019-01-05T06:04:27.334Z,1022.04
2019-01-05T06:05:27.267Z,1022.13
2019-01-05T06:06:27.256Z,1022.09
2019-01-05T06:07:27.260Z,1022.08
2019-01-05T06:08:27.247Z,1022.12
2019-01-05T06:09:27.228Z,1022.15
2019-01-05T06:10:27.225Z,1022.15
2019-01-05T06:11:27.205Z,1022.13
2019-01-05T06:12:27.188Z,1022.08
2019-01-05T06:13:27.200Z,1022.13
2019-01-05T06:14:27.169Z,1022.09
2019-01-05T06:15:27.214Z,1022.06
2019-01-05T06:16:27.171Z,1022.06
2019-01-05T06:17:27.137Z,1022.08
2019-01-05T06:18:27.128Z,1022.08
2019-01-05T06:19:27.109Z,1022.09
2019-01-05T06:20:27.116Z,1022.05
2019-01-05T06:21:27.088Z,1022.08
2019-01-05T06:22:27.092Z,1022.07
2019-01-05T06:23:27.068Z,1022.10
2019-01-05T06:24:27.055Z,1022.10
2019-01-05T06:25:27.056Z,1022.09
2019-01-05T06:26:27.042Z,1022.09
2019-01-05T06:27:27.045Z,1022.09
2019-01-05T06:28:27.025Z,1022.08
2019-01-05T06:29:27.012Z,1022.16
2019-01-05T06:30:26.990Z,1022.14
2019-01-05T06:31:26.985Z,1022.13
2019-01-05T06:32:26.962Z,1022.10
2019-01-05T06:33:26.970Z,1022.09
2019-01-05T06:34:26.951Z,1022.09
2019-01-05T06:35:26.932Z,1022.06
2019-01-05T06:36:26.928Z,1022.06
2019-01-05T06:37:26.915Z,1022.07
2019-01-05T06:38:26.911Z,1022.06
2019-01-05T06:39:26.911Z,1022.12
2019-01-05T06:40:26.875Z,1022.07
2019-01-05T06:41:26.866Z,1022.13
2019-01-05T06:42:26.851Z,1022.10
2019-01-05T06:43:26.847Z,1022.04
2019-01-05T06:44:26.843Z,1022.10
2019-01-05T06:45:26.820Z,1022.13
2019-01-05T06:46:26.805Z,1022.18
2019-01-05T06:47:26.804Z,1022.16
2019-01-05T06:48:26.790Z,1022.19
2019-01-05T06:49:26.786Z,1022.23
2019-01-05T06:50:26.781Z,1022.22
2019-01-05T06:51:26.775Z,1022.22
2019-01-05T06:52:27.392Z,1022.29
2019-01-05T06:53:26.732Z,1022.27
2019-01-05T06:54:26.724Z,1022.24
2019-01-05T06:55:26.749Z,1022.22
2019-01-05T06:56:26.703Z,1022.31
2019-01-05T06:57:26.684Z,1022.34
2019-01-05T06:58:26.674Z,1022.31
2019-01-05T06:59:26.665Z,1022.29
2019-01-05T07:00:26.653Z,1022.28
2019-01-05T07:01:26.661Z,1022.32
2019-01-05T07:02:26.633Z,1022.37
2019-01-05T07:03:26.616Z,1022.36
2019-01-05T07:04:26.605Z,1022.37
2019-01-05T07:05:26.593Z,1022.38
2019-01-05T07:06:26.583Z,1022.33
2019-01-05T07:07:26.589Z,1022.32
2019-01-05T07:08:26.570Z,1022.33
2019-01-05T07:09:26.562Z,1022.30
2019-01-05T07:10:26.540Z,1022.34
2019-01-05T07:11:26.526Z,1022.31
2019-01-05T07:12:26.516Z,1022.31
2019-01-05T07:13:26.519Z,1022.34
2019-01-05T07:14:26.510Z,1022.35
2019-01-05T07:15:26.480Z,1022.37
2019-01-05T07:16:26.470Z,1022.37
2019-01-05T07:17:26.458Z,1022.38
2019-01-05T07:18:26.462Z,1022.34
2019-01-05T07:19:26.452Z,1022.38
2019-01-05T07:20:26.431Z,1022.30
2019-01-05T07:21:26.431Z,1022.36
2019-01-05T07:22:26.402Z,1022.39
2019-01-05T07:23:26.389Z,1022.43
2019-01-05T07:24:26.391Z,1022.47
2019-01-05T07:25:26.386Z,1022.42
2019-01-05T07:26:26.361Z,1022.43
2019-01-05T07:27:26.362Z,1022.47
2019-01-05T07:28:26.336Z,1022.53
2019-01-05T07:29:26.325Z,1022.54
2019-01-05T07:30:26.314Z,1022.50
2019-01-05T07:31:26.314Z,1022.56
2019-01-05T07:32:26.304Z,1022.58
2019-01-05T07:33:26.288Z,1022.59
2019-01-05T07:34:26.293Z,1022.56
2019-01-05T07:35:26.257Z,1022.58
2019-01-05T07:36:26.259Z,1022.60
2019-01-05T07:37:26.237Z,1022.63
2019-01-05T07:38:26.241Z,1022.66
2019-01-05T07:39:26.239Z,1022.66
2019-01-05T07:40:26.228Z,1022.70
2019-01-05T07:41:26.189Z,1022.68
2019-01-05T07:42:26.178Z,1022.72
2019-01-05T07:43:26.166Z,1022.72
2019-01-05T07:44:26.179Z,1022.74
2019-01-05T07:45:26.146Z,1022.74
2019-01-05T07:46:26.141Z,1022.81
2019-01-05T07:47:26.129Z,1022.79
2019-01-05T07:48:26.110Z,1022.82
2019-01-05T07:49:26.106Z,1022.81
2019-01-05T07:50:26.103Z,1022.82
2019-01-05T07:51:26.078Z,1022.82
2019-01-05T07:52:26.089Z,1022.85
2019-01-05T07:53:26.055Z,1022.83
2019-01-05T07:54:26.071Z,1022.83
2019-01-05T07:55:26.046Z,1022.81
2019-01-05T07:56:26.021Z,1022.84
2019-01-05T07:57:26.010Z,1022.89
2019-01-05T07:58:25.997Z,1022.83
2019-01-05T07:59:25.987Z,1022.88
2019-01-05T08:00:25.994Z,1022.86
2019-01-05T08:01:25.994Z,1022.84
2019-01-05T08:02:25.962Z,1022.87
2019-01-05T08:03:25.948Z,1022.88
2019-01-05T08:04:25.934Z,1022.89
2019-01-05T08:05:25.921Z,1022.87
2019-01-05T08:06:25.957Z,1022.83
2019-01-05T08:07:25.928Z,1022.84
2019-01-05T08:08:25.920Z,1022.85
2019-01-05T08:09:25.875Z,1022.90
2019-01-05T08:10:25.864Z,1022.91
2019-01-05T08:11:25.885Z,1022.95
2019-01-05T08:12:25.848Z,1022.94
2019-01-05T08:13:25.871Z,1022.97
2019-01-05T08:14:25.838Z,1022.90
2019-01-05T08:15:25.813Z,1022.98
2019-01-05T08:16:25.814Z,1022.94
2019-01-05T08:17:25.798Z,1022.98
2019-01-05T08:18:25.795Z,1022.99
2019-01-05T08:19:25.764Z,1022.99
2019-01-05T08:20:25.771Z,1022.97
2019-01-05T08:21:25.741Z,1022.94
2019-01-05T08:22:25.757Z,1022.93
2019-01-05T08:23:25.738Z,1022.97
2019-01-05T08:24:25.709Z,1022.91
2019-01-05T08:25:25.710Z,1022.95
2019-01-05T08:26:25.751Z,1022.91
2019-01-05T08:27:25.681Z,1022.92
2019-01-05T08:28:25.666Z,1022.92
2019-01-05T08:29:25.661Z,1022.94
2019-01-05T08:30:25.640Z,1022.93
2019-01-05T08:31:25.654Z,1022.91
2019-01-05T08:32:25.616Z,1022.90
2019-01-05T08:33:25.605Z,1022.88
2019-01-05T08:34:25.653Z,1022.86
2019-01-05T08:35:25.583Z,1022.85
2019-01-05T08:36:25.571Z,1022.87
2019-01-05T08:37:25.571Z,1022.85
2019-01-05T08:38:25.548Z,1022.80
2019-01-05T08:39:25.544Z,1022.81
2019-01-05T08:40:25.529Z,1022.80
2019-01-05T08:41:25.514Z,1022.82
2019-01-05T08:42:34.376Z,1022.82
2019-01-05T08:43:25.509Z,1022.78
2019-01-05T08:44:25.481Z,1022.79
2019-01-05T08:45:25.488Z,1022.80
2019-01-05T08:46:25.461Z,1022.88
2019-01-05T08:47:25.453Z,1022.87
2019-01-05T08:48:25.465Z,1022.86
2019-01-05T08:49:25.439Z,1022.84
2019-01-05T08:50:25.414Z,1022.94
2019-01-05T08:51:25.409Z,1022.90
2019-01-05T08:52:25.393Z,1022.94
2019-01-05T08:53:25.397Z,1022.90
2019-01-05T08:54:25.378Z,1022.91
2019-01-05T08:55:25.353Z,1022.90
2019-01-05T08:56:25.390Z,1022.88
2019-01-05T08:57:25.334Z,1022.90
2019-01-05T08:58:25.320Z,1022.89
2019-01-05T08:59:25.327Z,1022.86
2019-01-05T09:00:25.305Z,1022.88
2019-01-05T09:01:25.287Z,1022.81
2019-01-05T09:02:25.339Z,1022.85
2019-01-05T09:03:25.268Z,1022.84
2019-01-05T09:04:25.256Z,1022.89
2019-01-05T09:05:25.255Z,1022.87
2019-01-05T09:06:25.236Z,1022.90
2019-01-05T09:07:25.225Z,1022.94
2019-01-05T09:08:25.211Z,1022.94
2019-01-05T09:09:25.226Z,1022.90
2019-01-05T09:10:25.202Z,1022.88
2019-01-05T09:11:25.176Z,1022.90
2019-01-05T09:12:25.164Z,1022.90
2019-01-05T09:13:25.151Z,1022.91
2019-01-05T09:14:25.139Z,1022.92
2019-01-05T09:15:25.159Z,1022.92
2019-01-05T09:16:25.136Z,1022.90
2019-01-05T09:17:25.107Z,1023.00
2019-01-05T09:18:25.098Z,1022.97
2019-01-05T09:19:25.099Z,1022.97
2019-01-05T09:20:25.075Z,1022.93
2019-01-05T09:21:25.096Z,1022.93
2019-01-05T09:22:25.062Z,1023.01
2019-01-05T09:23:25.042Z,1022.93
2019-01-05T09:24:25.031Z,1022.94
2019-01-05T09:25:25.015Z,1023.00
2019-01-05T09:26:25.010Z,1023.02
2019-01-05T09:27:25.016Z,1022.96
2019-01-05T09:28:24.984Z,1022.99
2019-01-05T09:29:24.990Z,1022.97
2019-01-05T09:30:24.968Z,1022.93
2019-01-05T09:31:24.949Z,1022.92
2019-01-05T09:32:24.939Z,1022.93
2019-01-05T09:33:24.934Z,1022.93
2019-01-05T09:34:24.918Z,1022.94
2019-01-05T09:35:24.923Z,1022.93
2019-01-05T09:36:24.894Z,1022.92
2019-01-05T09:37:24.882Z,1022.97
2019-01-05T09:38:24.870Z,1023.00
2019-01-05T09:39:24.866Z,1022.91
2019-01-05T09:40:24.863Z,1022.97
2019-01-05T09:41:24.849Z,1022.96
2019-01-05T09:42:24.827Z,1022.95
2019-01-05T09:43:25.055Z,1022.99
2019-01-05T09:44:24.802Z,1023.01
2019-01-05T09:45:24.812Z,1023.03
2019-01-05T09:46:24.811Z,1023.00
2019-01-05T09:47:24.770Z,1023.01
2019-01-05T09:48:24.759Z,1023.00
2019-01-05T09:49:24.749Z,1023.00
2019-01-05T09:50:24.738Z,1023.06
2019-01-05T09:51:24.765Z,1023.05
2019-01-05T09:52:24.730Z,1023.03
2019-01-05T09:53:24.703Z,1023.06
2019-01-05T09:54:24.691Z,1023.05
2019-01-05T09:55:24.681Z,1023.02
2019-01-05T09:56:24.674Z,1023.02
2019-01-05T09:57:24.683Z,1023.01
2019-01-05T09:58:24.665Z,1023.02
2019-01-05T09:59:24.634Z,1022.98
2019-01-05T10:00:24.626Z,1022.98
2019-01-05T10:01:24.612Z,1022.99
2019-01-05T10:02:24.601Z,1022.93
2019-01-05T10:03:24.606Z,1022.96
2019-01-05T10:04:24.604Z,1022.98
2019-01-05T10:05:24.569Z,1022.94
2019-01-05T10:06:24.555Z,1022.93
2019-01-05T10:07:24.546Z,1022.96
2019-01-05T10:08:24.534Z,1022.94
2019-01-05T10:09:24.543Z,1022.95
2019-01-05T10:10:24.532Z,1022.92
2019-01-05T10:11:24.504Z,1022.98
2019-01-05T10:12:24.490Z,1022.93
2019-01-05T10:13:24.485Z,1022.96
2019-01-05T10:14:24.468Z,1022.94
2019-01-05T10:15:24.487Z,1022.96
2019-01-05T10:16:24.445Z,1022.99
2019-01-05T10:17:24.436Z,1022.91
2019-01-05T10:18:24.422Z,1022.98
2019-01-05T10:19:24.428Z,1022.93
2019-01-05T10:20:24.400Z,1022.94
2019-01-05T10:21:24.403Z,1022.92
2019-01-05T10:22:24.391Z,1022.96
2019-01-05T10:23:24.372Z,1022.92
2019-01-05T10:24:24.355Z,1022.91
2019-01-05T10:25:24.345Z,1022.94
2019-01-05T10:26:24.330Z,1022.93
2019-01-05T10:27:24.363Z,1022.93
2019-01-05T10:28:24.309Z,1022.88
2019-01-05T10:29:24.304Z,1022.89
2019-01-05T10:30:24.288Z,1022.85
2019-01-05T10:31:24.280Z,1022.85
2019-01-05T10:32:24.266Z,1022.84
2019-01-05T10:33:24.292Z,1022.86
2019-01-05T10:34:24.244Z,1022.88
2019-01-05T10:35:24.230Z,1022.85
2019-01-05T10:36:24.220Z,1022.87
2019-01-05T10:37:24.213Z,1022.83
2019-01-05T10:38:24.201Z,1022.85
2019-01-05T10:39:24.197Z,1022.82
2019-01-05T10:40:24.192Z,1022.83
2019-01-05T10:41:24.165Z,1022.88
2019-01-05T10:42:24.153Z,1022.85
2019-01-05T10:43:24.139Z,1022.85
2019-01-05T10:44:24.142Z,1022.85
2019-01-05T10:45:24.127Z,1022.85
2019-01-05T10:46:24.128Z,1022.85
2019-01-05T10:47:24.095Z,1022.77
2019-01-05T10:48:24.093Z,1022.79
2019-01-05T10:49:24.095Z,1022.72
2019-01-05T10:50:24.064Z,1022.71
2019-01-05T10:51:24.051Z,1022.67
2019-01-05T10:52:24.076Z,1022.67
2019-01-05T10:53:24.029Z,1022.71
2019-01-05T10:54:24.020Z,1022.61
2019-01-05T10:55:24.026Z,1022.66
2019-01-05T10:56:23.993Z,1022.67
2019-01-05T10:57:23.983Z,1022.63
2019-01-05T10:58:23.996Z,1022.63
2019-01-05T10:59:23.972Z,1022.65
2019-01-05T11:00:23.969Z,1022.61
2019-01-05T11:01:23.958Z,1022.57
2019-01-05T11:02:24.314Z,1022.65
2019-01-05T11:03:23.919Z,1022.65
2019-01-05T11:04:23.906Z,1022.57
2019-01-05T11:05:23.907Z,1022.65
2019-01-05T11:06:23.882Z,1022.61
2019-01-05T11:07:23.889Z,1022.58
2019-01-05T11:08:23.865Z,1022.64
2019-01-05T11:09:23.850Z,1022.60
2019-01-05T11:10:23.838Z,1022.57
2019-01-05T11:11:23.841Z,1022.59
2019-01-05T11:12:23.823Z,1022.56
2019-01-05T11:13:23.825Z,1022.55
2019-01-05T11:14:23.798Z,1022.60
2019-01-05T11:15:23.785Z,1022.56
2019-01-05T11:16:23.774Z,1022.61
2019-01-05T11:17:23.769Z,1022.57
2019-01-05T11:18:23.775Z,1022.58
2019-01-05T11:19:23.769Z,1022.60
2019-01-05T11:20:23.723Z,1022.55
2019-01-05T11:21:23.719Z,1022.54
2019-01-05T11:22:23.717Z,1022.52
2019-01-05T11:23:23.691Z,1022.56
2019-01-05T11:24:23.735Z,1022.57
2019-01-05T11:25:23.682Z,1022.55
2019-01-05T11:26:23.661Z,1022.52
2019-01-05T11:27:23.652Z,1022.50
2019-01-05T11:28:23.638Z,1022.53
2019-01-05T11:29:23.624Z,1022.54
2019-01-05T11:30:23.665Z,1022.51
2019-01-05T11:31:23.623Z,1022.52
2019-01-05T11:32:23.612Z,1022.58
2019-01-05T11:33:23.578Z,1022.49
2019-01-05T11:34:23.573Z,1022.60
2019-01-05T11:35:23.559Z,1022.50
2019-01-05T11:36:23.570Z,1022.56
2019-01-05T11:37:23.549Z,1022.52
2019-01-05T11:38:23.534Z,1022.50
2019-01-05T11:39:23.512Z,1022.52
2019-01-05T11:40:23.500Z,1022.53
2019-01-05T11:41:23.492Z,1022.51
2019-01-05T11:42:23.491Z,1022.52
2019-01-05T11:43:23.493Z,1022.51
2019-01-05T11:44:23.466Z,1022.51
2019-01-05T11:45:23.446Z,1022.52
2019-01-05T11:46:23.433Z,1022.50
2019-01-05T11:47:23.438Z,1022.50
2019-01-05T11:48:23.435Z,1022.53
2019-01-05T11:49:23.415Z,1022.56
2019-01-05T11:50:23.390Z,1022.52
2019-01-05T11:51:23.379Z,1022.52
2019-01-05T11:52:23.365Z,1022.52
2019-01-05T11:53:23.369Z,1022.50
2019-01-05T11:54:23.364Z,1022.49
2019-01-05T11:55:23.345Z,1022.49
2019-01-05T11:56:23.322Z,1022.47
2019-01-05T11:57:23.321Z,1022.44
2019-01-05T11:58:23.309Z,1022.49
2019-01-05T11:59:23.287Z,1022.46
2019-01-05T12:00:23.305Z,1022.44
2019-01-05T12:01:23.267Z,1022.52
2019-01-05T12:02:23.254Z,1022.48
2019-01-05T12:03:23.242Z,1022.45
2019-01-05T12:04:23.241Z,1022.42
2019-01-05T12:05:23.219Z,1022.45